BEW weather

Beira Airport
Beira, Sofala Province, Mozambique

Public forecast

Using degrees Celsius for public forecast. Weather courtesy of forecast.io.

METAR (pilot weather report)

Retrieved 2019/09/22 23:00 UTC (27 minutes ago):

FQBR 222300Z 06004KT CAVOK 21/20 Q1013

TAF (pilot weather forecast)

Forecast is more than 6 hours old.

Retrieved 2019/09/22 12:00 UTC (11 hours ago):

TAF FQBR 221000Z 2212/2318 08008KT 9999 FEW020 TX29/2213Z TN20/2303Z BECMG 2218/2220 19012KT BECMG 2306/2308 03010KT